sensor_id;sensor_type;location;lat;lon;timestamp;pressure;altitude;pressure_sealevel;temperature;humidity
83308;BME280;73223;48.584;13.460;2024-03-22T00:01:09;97515.41;;;8.23;100.00
83308;BME280;73223;48.584;13.460;2024-03-22T00:03:34;97522.94;;;8.43;100.00
83308;BME280;73223;48.584;13.460;2024-03-22T00:06:00;97519.63;;;8.33;100.00
83308;BME280;73223;48.584;13.460;2024-03-22T00:08:25;97518.81;;;8.25;100.00
83308;BME280;73223;48.584;13.460;2024-03-22T00:10:50;97517.03;;;8.31;100.00
83308;BME280;73223;48.584;13.460;2024-03-22T00:13:15;97520.44;;;8.38;100.00
83308;BME280;73223;48.584;13.460;2024-03-22T00:15:41;97527.31;;;8.39;100.00
83308;BME280;73223;48.584;13.460;2024-03-22T00:18:09;97522.22;;;8.27;100.00
83308;BME280;73223;48.584;13.460;2024-03-22T00:20:34;97518.91;;;8.17;100.00
83308;BME280;73223;48.584;13.460;2024-03-22T00:22:59;97521.03;;;7.77;100.00
83308;BME280;73223;48.584;13.460;2024-03-22T00:25:25;97519.25;;;7.85;100.00
83308;BME280;73223;48.584;13.460;2024-03-22T00:27:50;97515.84;;;7.79;100.00
83308;BME280;73223;48.584;13.460;2024-03-22T00:30:15;97510.88;;;7.57;100.00
83308;BME280;73223;48.584;13.460;2024-03-22T00:32:41;97511.00;;;7.45;100.00
83308;BME280;73223;48.584;13.460;2024-03-22T00:35:06;97508.47;;;7.36;100.00
83308;BME280;73223;48.584;13.460;2024-03-22T00:37:31;97505.00;;;7.40;100.00
83308;BME280;73223;48.584;13.460;2024-03-22T00:39:57;97503.06;;;7.66;100.00
83308;BME280;73223;48.584;13.460;2024-03-22T00:42:22;97503.81;;;7.76;100.00
83308;BME280;73223;48.584;13.460;2024-03-22T00:44:47;97503.25;;;7.44;100.00
83308;BME280;73223;48.584;13.460;2024-03-22T00:47:12;97504.06;;;7.50;100.00
83308;BME280;73223;48.584;13.460;2024-03-22T00:49:38;97500.66;;;7.48;100.00
83308;BME280;73223;48.584;13.460;2024-03-22T00:52:03;97502.50;;;7.34;100.00
83308;BME280;73223;48.584;13.460;2024-03-22T00:54:28;97498.34;;;7.15;100.00
83308;BME280;73223;48.584;13.460;2024-03-22T00:56:53;97494.16;;;6.97;100.00
83308;BME280;73223;48.584;13.460;2024-03-22T00:59:19;97492.13;;;7.39;100.00
83308;BME280;73223;48.584;13.460;2024-03-22T01:01:44;97481.91;;;7.26;100.00
83308;BME280;73223;48.584;13.460;2024-03-22T01:04:09;97484.72;;;6.97;100.00
83308;BME280;73223;48.584;13.460;2024-03-22T01:06:35;97481.09;;;7.21;100.00
83308;BME280;73223;48.584;13.460;2024-03-22T01:09:00;97473.44;;;7.14;100.00
83308;BME280;73223;48.584;13.460;2024-03-22T01:11:25;97474.31;;;7.07;100.00
83308;BME280;73223;48.584;13.460;2024-03-22T01:13:51;97469.19;;;7.04;100.00
83308;BME280;73223;48.584;13.460;2024-03-22T01:16:16;97473.47;;;7.03;100.00
83308;BME280;73223;48.584;13.460;2024-03-22T01:18:41;97476.88;;;7.08;100.00
83308;BME280;73223;48.584;13.460;2024-03-22T01:21:07;97468.91;;;7.40;100.00
83308;BME280;73223;48.584;13.460;2024-03-22T01:23:32;97464.59;;;7.39;100.00
83308;BME280;73223;48.584;13.460;2024-03-22T01:25:57;97469.69;;;7.48;100.00
83308;BME280;73223;48.584;13.460;2024-03-22T01:28:23;97470.53;;;7.52;100.00
83308;BME280;73223;48.584;13.460;2024-03-22T01:30:48;97465.41;;;7.46;100.00
83308;BME280;73223;48.584;13.460;2024-03-22T01:33:13;97464.84;;;7.10;100.00
83308;BME280;73223;48.584;13.460;2024-03-22T01:35:39;97464.06;;;6.99;100.00
83308;BME280;73223;48.584;13.460;2024-03-22T01:38:04;97459.00;;;6.88;100.00
83308;BME280;73223;48.584;13.460;2024-03-22T01:40:29;97469.38;;;6.78;100.00
83308;BME280;73223;48.584;13.460;2024-03-22T01:42:58;97465.06;;;6.80;100.00
83308;BME280;73223;48.584;13.460;2024-03-22T01:45:24;97469.41;;;6.67;100.00
83308;BME280;73223;48.584;13.460;2024-03-22T01:47:53;97454.88;;;6.57;100.00
83308;BME280;73223;48.584;13.460;2024-03-22T01:50:20;97454.88;;;6.58;100.00
83308;BME280;73223;48.584;13.460;2024-03-22T01:52:46;97451.34;;;6.73;100.00
83308;BME280;73223;48.584;13.460;2024-03-22T01:55:11;97462.41;;;6.89;100.00
83308;BME280;73223;48.584;13.460;2024-03-22T01:57:38;97457.41;;;6.66;100.00
83308;BME280;73223;48.584;13.460;2024-03-22T02:00:03;97463.38;;;6.73;100.00
83308;BME280;73223;48.584;13.460;2024-03-22T02:02:29;97458.25;;;6.67;100.00
83308;BME280;73223;48.584;13.460;2024-03-22T02:04:54;97459.09;;;6.69;100.00
83308;BME280;73223;48.584;13.460;2024-03-22T02:07:21;97459.22;;;6.49;100.00
83308;BME280;73223;48.584;13.460;2024-03-22T02:09:46;97458.41;;;6.39;100.00
83308;BME280;73223;48.584;13.460;2024-03-22T02:12:12;97458.50;;;6.16;100.00
83308;BME280;73223;48.584;13.460;2024-03-22T02:14:37;97442.19;;;6.17;100.00
83308;BME280;73223;48.584;13.460;2024-03-22T02:17:02;97438.84;;;6.02;100.00
83308;BME280;73223;48.584;13.460;2024-03-22T02:19:28;97435.44;;;5.84;100.00
83308;BME280;73223;48.584;13.460;2024-03-22T02:21:53;97432.00;;;5.84;100.00
83308;BME280;73223;48.584;13.460;2024-03-22T02:24:18;97434.59;;;5.75;100.00
83308;BME280;73223;48.584;13.460;2024-03-22T02:26:43;97441.47;;;5.89;100.00
83308;BME280;73223;48.584;13.460;2024-03-22T02:29:09;97432.00;;;5.82;100.00
83308;BME280;73223;48.584;13.460;2024-03-22T02:31:34;97429.50;;;5.52;100.00
83308;BME280;73223;48.584;13.460;2024-03-22T02:33:59;97428.47;;;6.24;100.00
83308;BME280;73223;48.584;13.460;2024-03-22T02:36:26;97428.38;;;6.44;100.00
83308;BME280;73223;48.584;13.460;2024-03-22T02:38:51;97430.88;;;6.49;100.00
83308;BME280;73223;48.584;13.460;2024-03-22T02:41:16;97427.53;;;6.39;100.00
83308;BME280;73223;48.584;13.460;2024-03-22T02:43:42;97423.34;;;6.11;100.00
83308;BME280;73223;48.584;13.460;2024-03-22T02:46:07;97420.75;;;6.17;100.00
83308;BME280;73223;48.584;13.460;2024-03-22T02:48:32;97419.91;;;6.13;100.00
83308;BME280;73223;48.584;13.460;2024-03-22T02:50:58;97420.75;;;6.21;100.00
83308;BME280;73223;48.584;13.460;2024-03-22T02:53:23;97416.53;;;6.08;100.00
83308;BME280;73223;48.584;13.460;2024-03-22T02:55:48;97413.13;;;5.86;100.00
83308;BME280;73223;48.584;13.460;2024-03-22T02:58:14;97410.56;;;5.74;100.00
83308;BME280;73223;48.584;13.460;2024-03-22T03:00:39;97415.78;;;5.62;100.00
83308;BME280;73223;48.584;13.460;2024-03-22T03:03:07;97420.00;;;5.80;100.00
83308;BME280;73223;48.584;13.460;2024-03-22T03:05:33;97420.88;;;5.89;100.00
83308;BME280;73223;48.584;13.460;2024-03-22T03:08:00;97419.97;;;6.00;100.00
83308;BME280;73223;48.584;13.460;2024-03-22T03:10:26;97421.75;;;5.90;100.00
83308;BME280;73223;48.584;13.460;2024-03-22T03:12:51;97416.56;;;5.84;100.00
83308;BME280;73223;48.584;13.460;2024-03-22T03:15:17;97415.75;;;5.73;100.00
83308;BME280;73223;48.584;13.460;2024-03-22T03:17:42;97418.13;;;6.29;100.00
83308;BME280;73223;48.584;13.460;2024-03-22T03:20:08;97415.53;;;6.32;100.00
83308;BME280;73223;48.584;13.460;2024-03-22T03:22:35;97414.81;;;6.00;100.00
83308;BME280;73223;48.584;13.460;2024-03-22T03:25:00;97414.69;;;6.27;100.00
83308;BME280;73223;48.584;13.460;2024-03-22T03:27:26;97420.66;;;6.41;100.00
83308;BME280;73223;48.584;13.460;2024-03-22T03:29:51;97418.06;;;6.43;100.00
83308;BME280;73223;48.584;13.460;2024-03-22T03:32:17;97419.69;;;6.57;100.00
83308;BME280;73223;48.584;13.460;2024-03-22T03:34:42;97419.59;;;6.73;100.00
83308;BME280;73223;48.584;13.460;2024-03-22T03:37:07;97416.03;;;6.87;100.00
83308;BME280;73223;48.584;13.460;2024-03-22T03:39:32;97419.56;;;6.76;100.00
83308;BME280;73223;48.584;13.460;2024-03-22T03:41:58;97410.25;;;6.55;100.00
83308;BME280;73223;48.584;13.460;2024-03-22T03:44:23;97401.72;;;6.48;100.00
83308;BME280;73223;48.584;13.460;2024-03-22T03:46:48;97402.53;;;6.52;100.00
83308;BME280;73223;48.584;13.460;2024-03-22T03:49:14;97400.63;;;6.81;100.00
83308;BME280;73223;48.584;13.460;2024-03-22T03:51:39;97395.47;;;6.83;100.00
83308;BME280;73223;48.584;13.460;2024-03-22T03:54:04;97388.56;;;6.85;100.00
83308;BME280;73223;48.584;13.460;2024-03-22T03:56:29;97395.00;;;6.26;100.00
83308;BME280;73223;48.584;13.460;2024-03-22T03:58:55;97388.03;;;6.43;100.00
83308;BME280;73223;48.584;13.460;2024-03-22T04:01:20;97379.69;;;5.92;100.00
83308;BME280;73223;48.584;13.460;2024-03-22T04:03:48;97381.25;;;6.25;100.00
83308;BME280;73223;48.584;13.460;2024-03-22T04:06:13;97383.13;;;5.82;100.00
83308;BME280;73223;48.584;13.460;2024-03-22T04:08:39;97379.56;;;6.17;100.00
83308;BME280;73223;48.584;13.460;2024-03-22T04:11:04;97376.13;;;6.21;100.00
83308;BME280;73223;48.584;13.460;2024-03-22T04:13:29;97375.19;;;6.36;100.00
83308;BME280;73223;48.584;13.460;2024-03-22T04:15:58;97372.72;;;6.19;100.00
83308;BME280;73223;48.584;13.460;2024-03-22T04:18:24;97372.63;;;6.34;100.00
83308;BME280;73223;48.584;13.460;2024-03-22T04:20:56;97370.06;;;6.28;100.00
83308;BME280;73223;48.584;13.460;2024-03-22T04:23:23;97376.13;;;6.19;100.00
83308;BME280;73223;48.584;13.460;2024-03-22T04:26:00;97376.03;;;6.36;100.00
83308;BME280;73223;48.584;13.460;2024-03-22T04:28:26;97370.97;;;6.21;100.00
83308;BME280;73223;48.584;13.460;2024-03-22T04:31:05;97375.22;;;6.30;100.00
83308;BME280;73223;48.584;13.460;2024-03-22T04:33:31;97372.63;;;6.33;100.00
83308;BME280;73223;48.584;13.460;2024-03-22T04:35:58;97370.97;;;6.24;100.00
83308;BME280;73223;48.584;13.460;2024-03-22T04:38:24;97365.84;;;6.21;100.00
83308;BME280;73223;48.584;13.460;2024-03-22T04:40:50;97361.25;;;6.66;100.00
83308;BME280;73223;48.584;13.460;2024-03-22T04:43:15;97365.00;;;6.16;100.00
83308;BME280;73223;48.584;13.460;2024-03-22T04:45:48;97368.25;;;6.45;100.00
83308;BME280;73223;48.584;13.460;2024-03-22T04:48:18;97362.19;;;6.57;100.00
83308;BME280;73223;48.584;13.460;2024-03-22T04:50:45;97351.84;;;6.61;100.00
83308;BME280;73223;48.584;13.460;2024-03-22T04:53:10;97365.00;;;6.16;100.00
83308;BME280;73223;48.584;13.460;2024-03-22T04:55:35;97360.59;;;6.38;100.00
83308;BME280;73223;48.584;13.460;2024-03-22T04:58:01;97355.03;;;6.92;100.00
83308;BME280;73223;48.584;13.460;2024-03-22T05:00:28;97357.63;;;6.89;100.00
83308;BME280;73223;48.584;13.460;2024-03-22T05:02:53;97359.41;;;6.81;100.00
83308;BME280;73223;48.584;13.460;2024-03-22T05:05:18;97362.22;;;6.49;100.00
83308;BME280;73223;48.584;13.460;2024-03-22T05:07:44;97360.38;;;6.65;100.00
83308;BME280;73223;48.584;13.460;2024-03-22T05:10:09;97355.19;;;6.73;100.00
83308;BME280;73223;48.584;13.460;2024-03-22T05:12:35;97355.06;;;6.88;100.00
83308;BME280;73223;48.584;13.460;2024-03-22T05:15:02;97350.91;;;6.70;100.00
83308;BME280;73223;48.584;13.460;2024-03-22T05:17:28;97358.00;;;6.41;100.00
83308;BME280;73223;48.584;13.460;2024-03-22T05:19:54;97365.50;;;6.70;100.00
83308;BME280;73223;48.584;13.460;2024-03-22T05:22:19;97366.19;;;6.94;100.00
83308;BME280;73223;48.584;13.460;2024-03-22T05:24:45;97373.34;;;6.53;100.00
83308;BME280;73223;48.584;13.460;2024-03-22T05:27:10;97373.31;;;6.62;100.00
83308;BME280;73223;48.584;13.460;2024-03-22T05:29:36;97372.34;;;6.75;100.00
83308;BME280;73223;48.584;13.460;2024-03-22T05:32:01;97373.38;;;6.48;100.00
83308;BME280;73223;48.584;13.460;2024-03-22T05:34:28;97378.94;;;7.10;100.00
83308;BME280;73223;48.584;13.460;2024-03-22T05:36:54;97383.25;;;7.06;100.00
83308;BME280;73223;48.584;13.460;2024-03-22T05:39:19;97383.25;;;7.06;100.00
83308;BME280;73223;48.584;13.460;2024-03-22T05:41:44;97377.09;;;7.21;100.00
83308;BME280;73223;48.584;13.460;2024-03-22T05:44:11;97381.47;;;7.16;100.00
83308;BME280;73223;48.584;13.460;2024-03-22T05:46:36;97373.78;;;7.07;100.00
83308;BME280;73223;48.584;13.460;2024-03-22T05:49:01;97368.06;;;6.71;100.00
83308;BME280;73223;48.584;13.460;2024-03-22T05:51:27;97373.31;;;6.62;100.00
83308;BME280;73223;48.584;13.460;2024-03-22T05:53:52;97370.47;;;6.97;100.00
83308;BME280;73223;48.584;13.460;2024-03-22T05:56:17;97367.81;;;7.05;100.00
83308;BME280;73223;48.584;13.460;2024-03-22T05:58:43;97365.09;;;7.18;100.00
83308;BME280;73223;48.584;13.460;2024-03-22T06:01:08;97362.44;;;7.26;100.00
83308;BME280;73223;48.584;13.460;2024-03-22T06:03:33;97355.44;;;7.37;100.00
83308;BME280;73223;48.584;13.460;2024-03-22T06:05:59;97356.22;;;7.47;100.00
83308;BME280;73223;48.584;13.460;2024-03-22T06:08:28;97350.44;;;7.25;100.00
83308;BME280;73223;48.584;13.460;2024-03-22T06:10:54;97348.75;;;7.19;100.00
83308;BME280;73223;48.584;13.460;2024-03-22T06:13:20;97354.19;;;6.92;100.00
83308;BME280;73223;48.584;13.460;2024-03-22T06:15:48;97357.53;;;7.00;100.00
83308;BME280;73223;48.584;13.460;2024-03-22T06:18:13;97354.13;;;6.98;100.00
83308;BME280;73223;48.584;13.460;2024-03-22T06:20:38;97344.53;;;7.12;100.00
83308;BME280;73223;48.584;13.460;2024-03-22T06:23:04;97342.81;;;7.13;100.00
83308;BME280;73223;48.584;13.460;2024-03-22T06:25:29;97338.59;;;7.06;100.00
83308;BME280;73223;48.584;13.460;2024-03-22T06:27:54;97343.59;;;7.19;100.00
83308;BME280;73223;48.584;13.460;2024-03-22T06:30:20;97342.72;;;7.22;100.00
83308;BME280;73223;48.584;13.460;2024-03-22T06:32:45;97341.19;;;7.00;100.00
83308;BME280;73223;48.584;13.460;2024-03-22T06:35:10;97334.59;;;6.70;100.00
83308;BME280;73223;48.584;13.460;2024-03-22T06:37:37;97331.38;;;7.38;100.00
83308;BME280;73223;48.584;13.460;2024-03-22T06:40:03;97332.06;;;7.54;100.00
83308;BME280;73223;48.584;13.460;2024-03-22T06:42:28;97340.06;;;7.31;100.00
83308;BME280;73223;48.584;13.460;2024-03-22T06:44:53;97336.91;;;7.00;100.00
83308;BME280;73223;48.584;13.460;2024-03-22T06:47:18;97341.06;;;7.16;100.00
83308;BME280;73223;48.584;13.460;2024-03-22T06:49:45;97350.03;;;6.73;100.00
83308;BME280;73223;48.584;13.460;2024-03-22T06:52:11;97349.31;;;6.54;100.00
83308;BME280;73223;48.584;13.460;2024-03-22T06:54:36;97352.75;;;6.56;100.00
83308;BME280;73223;48.584;13.460;2024-03-22T06:57:01;97341.69;;;7.38;100.00
83308;BME280;73223;48.584;13.460;2024-03-22T06:59:26;97337.19;;;7.57;100.00
83308;BME280;73223;48.584;13.460;2024-03-22T07:01:52;97341.19;;;7.84;100.00
83308;BME280;73223;48.584;13.460;2024-03-22T07:04:17;97336.06;;;7.81;100.00
83308;BME280;73223;48.584;13.460;2024-03-22T07:06:42;97335.66;;;8.11;100.00
83308;BME280;73223;48.584;13.460;2024-03-22T07:09:08;97328.53;;;8.27;100.00
83308;BME280;73223;48.584;13.460;2024-03-22T07:11:33;97331.00;;;8.41;100.00
83308;BME280;73223;48.584;13.460;2024-03-22T07:13:59;97329.31;;;8.38;100.00
83308;BME280;73223;48.584;13.460;2024-03-22T07:16:24;97331.28;;;8.18;100.00
83308;BME280;73223;48.584;13.460;2024-03-22T07:18:49;97331.72;;;8.47;100.00
83308;BME280;73223;48.584;13.460;2024-03-22T07:21:15;97338.56;;;8.51;100.00
83308;BME280;73223;48.584;13.460;2024-03-22T07:23:40;97343.88;;;8.96;100.00
83308;BME280;73223;48.584;13.460;2024-03-22T07:26:06;97340.91;;;9.19;100.00
83308;BME280;73223;48.584;13.460;2024-03-22T07:28:32;97346.69;;;9.33;100.00
83308;BME280;73223;48.584;13.460;2024-03-22T07:30:58;97346.66;;;9.34;100.00
83308;BME280;73223;48.584;13.460;2024-03-22T07:33:23;97336.94;;;9.49;100.00
83308;BME280;73223;48.584;13.460;2024-03-22T07:35:48;97343.53;;;9.63;100.00
83308;BME280;73223;48.584;13.460;2024-03-22T07:38:14;97339.09;;;9.68;100.00
83308;BME280;73223;48.584;13.460;2024-03-22T07:40:39;97343.28;;;9.75;100.00
83308;BME280;73223;48.584;13.460;2024-03-22T07:43:04;97342.13;;;9.90;100.00
83308;BME280;73223;48.584;13.460;2024-03-22T07:45:33;97333.78;;;9.76;100.00
83308;BME280;73223;48.584;13.460;2024-03-22T07:47:59;97335.19;;;9.49;100.00
83308;BME280;73223;48.584;13.460;2024-03-22T07:50:24;97336.84;;;9.96;100.00
83308;BME280;73223;48.584;13.460;2024-03-22T07:52:49;97331.22;;;10.18;100.00
83308;BME280;73223;48.584;13.460;2024-03-22T07:55:15;97330.81;;;10.37;100.00
83308;BME280;73223;48.584;13.460;2024-03-22T07:57:41;97331.81;;;10.30;100.00
83308;BME280;73223;48.584;13.460;2024-03-22T08:00:06;97336.50;;;10.12;100.00
83308;BME280;73223;48.584;13.460;2024-03-22T08:02:32;97328.09;;;10.79;100.00
83308;BME280;73223;48.584;13.460;2024-03-22T08:04:57;97329.59;;;11.23;100.00
83308;BME280;73223;48.584;13.460;2024-03-22T08:07:22;97334.34;;;10.33;100.00
83308;BME280;73223;48.584;13.460;2024-03-22T08:09:48;97328.94;;;10.79;100.00
83308;BME280;73223;48.584;13.460;2024-03-22T08:12:13;97317.66;;;11.16;100.00
83308;BME280;73223;48.584;13.460;2024-03-22T08:14:38;97312.50;;;11.47;100.00
83308;BME280;73223;48.584;13.460;2024-03-22T08:17:03;97318.72;;;11.09;100.00
83308;BME280;73223;48.584;13.460;2024-03-22T08:19:29;97314.38;;;11.42;100.00
83308;BME280;73223;48.584;13.460;2024-03-22T08:21:54;97312.88;;;11.33;100.00
83308;BME280;73223;48.584;13.460;2024-03-22T08:24:19;97312.25;;;10.91;100.00
83308;BME280;73223;48.584;13.460;2024-03-22T08:26:44;97300.84;;;10.61;100.00
83308;BME280;73223;48.584;13.460;2024-03-22T08:29:12;97303.03;;;10.42;100.00
83308;BME280;73223;48.584;13.460;2024-03-22T08:31:39;97304.63;;;10.48;100.00
83308;BME280;73223;48.584;13.460;2024-03-22T08:34:04;97300.41;;;10.44;100.00
83308;BME280;73223;48.584;13.460;2024-03-22T08:36:30;97300.91;;;10.21;100.00
83308;BME280;73223;48.584;13.460;2024-03-22T08:38:56;97296.84;;;10.48;100.00
83308;BME280;73223;48.584;13.460;2024-03-22T08:41:21;97301.63;;;11.33;100.00
83308;BME280;73223;48.584;13.460;2024-03-22T08:43:46;97304.16;;;11.99;100.00
83308;BME280;73223;48.584;13.460;2024-03-22T08:46:12;97304.69;;;11.16;100.00
83308;BME280;73223;48.584;13.460;2024-03-22T08:48:37;97297.47;;;11.91;100.00
83308;BME280;73223;48.584;13.460;2024-03-22T08:51:02;97296.78;;;12.41;100.00
83308;BME280;73223;48.584;13.460;2024-03-22T08:53:28;97292.03;;;12.28;100.00
83308;BME280;73223;48.584;13.460;2024-03-22T08:55:53;97282.69;;;11.62;100.00
83308;BME280;73223;48.584;13.460;2024-03-22T08:58:18;97282.97;;;10.51;100.00
83308;BME280;73223;48.584;13.460;2024-03-22T09:00:44;97278.00;;;11.11;100.00
83308;BME280;73223;48.584;13.460;2024-03-22T09:03:10;97273.72;;;11.72;100.00
83308;BME280;73223;48.584;13.460;2024-03-22T09:05:35;97271.16;;;12.01;100.00
83308;BME280;73223;48.584;13.460;2024-03-22T09:08:01;97272.81;;;12.33;100.00
83308;BME280;73223;48.584;13.460;2024-03-22T09:10:28;97264.31;;;13.07;100.00
83308;BME280;73223;48.584;13.460;2024-03-22T09:12:54;97260.16;;;11.93;100.00
83308;BME280;73223;48.584;13.460;2024-03-22T09:15:20;97268.09;;;11.27;100.00
83308;BME280;73223;48.584;13.460;2024-03-22T09:17:46;97261.22;;;12.70;100.00
83308;BME280;73223;48.584;13.460;2024-03-22T09:20:11;97263.88;;;12.68;100.00
83308;BME280;73223;48.584;13.460;2024-03-22T09:22:37;97271.75;;;12.92;100.00
83308;BME280;73223;48.584;13.460;2024-03-22T09:25:04;97260.25;;;13.73;100.00
83308;BME280;73223;48.584;13.460;2024-03-22T09:27:30;97259.84;;;14.29;100.00
83308;BME280;73223;48.584;13.460;2024-03-22T09:29:55;97261.44;;;14.77;100.00
83308;BME280;73223;48.584;13.460;2024-03-22T09:32:21;97258.34;;;15.09;100.00
83308;BME280;73223;48.584;13.460;2024-03-22T09:34:48;97257.38;;;14.70;100.00
83308;BME280;73223;48.584;13.460;2024-03-22T09:37:14;97249.44;;;14.93;100.00
83308;BME280;73223;48.584;13.460;2024-03-22T09:39:39;97253.09;;;15.09;100.00
83308;BME280;73223;48.584;13.460;2024-03-22T09:42:06;97259.84;;;15.15;100.00
83308;BME280;73223;48.584;13.460;2024-03-22T09:44:32;97248.28;;;14.80;100.00
83308;BME280;73223;48.584;13.460;2024-03-22T09:46:59;97243.72;;;15.05;100.00
83308;BME280;73223;48.584;13.460;2024-03-22T09:49:25;97254.03;;;13.99;100.00
83308;BME280;73223;48.584;13.460;2024-03-22T09:51:51;97248.56;;;13.10;100.00
83308;BME280;73223;48.584;13.460;2024-03-22T09:54:17;97250.56;;;13.29;100.00
83308;BME280;73223;48.584;13.460;2024-03-22T09:56:43;97237.44;;;14.89;100.00
83308;BME280;73223;48.584;13.460;2024-03-22T09:59:09;97236.25;;;14.10;100.00
83308;BME280;73223;48.584;13.460;2024-03-22T10:01:36;97224.03;;;14.56;100.00
83308;BME280;73223;48.584;13.460;2024-03-22T10:04:01;97226.56;;;15.20;100.00
83308;BME280;73223;48.584;13.460;2024-03-22T10:06:29;97226.00;;;14.71;100.00
83308;BME280;73223;48.584;13.460;2024-03-22T10:08:54;97231.00;;;13.88;100.00
83308;BME280;73223;48.584;13.460;2024-03-22T10:11:20;97229.78;;;14.20;100.00
83308;BME280;73223;48.584;13.460;2024-03-22T10:13:46;97224.56;;;14.64;100.00
83308;BME280;73223;48.584;13.460;2024-03-22T10:16:16;97224.19;;;15.34;100.00
83308;BME280;73223;48.584;13.460;2024-03-22T10:18:41;97219.97;;;16.08;100.00
83308;BME280;73223;48.584;13.460;2024-03-22T10:21:07;97220.13;;;16.05;93.39
83308;BME280;73223;48.584;13.460;2024-03-22T10:23:32;97211.72;;;16.35;96.55
83308;BME280;73223;48.584;13.460;2024-03-22T10:25:58;97211.47;;;16.58;94.13
83308;BME280;73223;48.584;13.460;2024-03-22T10:28:27;97211.88;;;16.31;96.06
83308;BME280;73223;48.584;13.460;2024-03-22T10:30:53;97207.91;;;16.95;90.96
83308;BME280;73223;48.584;13.460;2024-03-22T10:33:20;97209.72;;;16.58;87.57
83308;BME280;73223;48.584;13.460;2024-03-22T10:35:52;97206.72;;;16.66;87.65
83308;BME280;73223;48.584;13.460;2024-03-22T10:38:21;97211.91;;;17.02;78.03
83308;BME280;73223;48.584;13.460;2024-03-22T10:40:47;97201.44;;;17.19;73.77
83308;BME280;73223;48.584;13.460;2024-03-22T10:43:14;97201.94;;;17.26;83.88
83308;BME280;73223;48.584;13.460;2024-03-22T10:45:40;97198.63;;;16.53;96.63
83308;BME280;73223;48.584;13.460;2024-03-22T10:48:09;97201.78;;;16.60;81.08
83308;BME280;73223;48.584;13.460;2024-03-22T10:50:39;97195.75;;;16.77;76.01
83308;BME280;73223;48.584;13.460;2024-03-22T10:53:07;97195.53;;;16.98;87.32
83308;BME280;73223;48.584;13.460;2024-03-22T10:55:36;97189.75;;;16.75;79.42
83308;BME280;73223;48.584;13.460;2024-03-22T10:58:03;97189.50;;;17.14;78.11
83308;BME280;73223;48.584;13.460;2024-03-22T11:00:32;97183.72;;;16.73;77.64
83308;BME280;73223;48.584;13.460;2024-03-22T11:02:58;97187.03;;;17.11;77.46
83308;BME280;73223;48.584;13.460;2024-03-22T11:05:25;97178.13;;;16.63;86.43
83308;BME280;73223;48.584;13.460;2024-03-22T11:08:02;97181.69;;;15.70;80.96
83308;BME280;73223;48.584;13.460;2024-03-22T11:10:29;97171.53;;;15.63;78.46
83308;BME280;73223;48.584;13.460;2024-03-22T11:13:05;97162.13;;;16.50;73.42
83308;BME280;73223;48.584;13.460;2024-03-22T11:15:32;97163.16;;;16.48;71.55
83308;BME280;73223;48.584;13.460;2024-03-22T11:17:58;97151.22;;;16.59;70.72
83308;BME280;73223;48.584;13.460;2024-03-22T11:20:24;97146.75;;;17.13;72.82
83308;BME280;73223;48.584;13.460;2024-03-22T11:22:51;97145.66;;;17.50;67.25
83308;BME280;73223;48.584;13.460;2024-03-22T11:25:16;97144.16;;;16.61;68.58
83308;BME280;73223;48.584;13.460;2024-03-22T11:27:42;97133.69;;;18.09;72.67
83308;BME280;73223;48.584;13.460;2024-03-22T11:30:08;97124.78;;;18.87;68.88
83308;BME280;73223;48.584;13.460;2024-03-22T11:32:33;97115.88;;;18.76;71.78
83308;BME280;73223;48.584;13.460;2024-03-22T11:35:09;97112.81;;;19.54;65.40
83308;BME280;73223;48.584;13.460;2024-03-22T11:37:34;97111.53;;;18.29;59.51
83308;BME280;73223;48.584;13.460;2024-03-22T11:39:59;97102.97;;;19.99;57.61
83308;BME280;73223;48.584;13.460;2024-03-22T11:42:26;97099.88;;;20.46;52.45
83308;BME280;73223;48.584;13.460;2024-03-22T11:44:51;97097.31;;;19.35;56.72
83308;BME280;73223;48.584;13.460;2024-03-22T11:47:17;97089.25;;;20.60;57.74
83308;BME280;73223;48.584;13.460;2024-03-22T11:49:42;97084.97;;;20.59;54.52
83308;BME280;73223;48.584;13.460;2024-03-22T11:52:08;97079.72;;;21.10;55.38
83308;BME280;73223;48.584;13.460;2024-03-22T11:54:33;97068.97;;;21.75;53.12
83308;BME280;73223;48.584;13.460;2024-03-22T11:56:58;97066.06;;;21.54;49.43
83308;BME280;73223;48.584;13.460;2024-03-22T11:59:23;97062.47;;;20.01;54.14
83308;BME280;73223;48.584;13.460;2024-03-22T12:01:49;97069.44;;;18.46;55.37
83308;BME280;73223;48.584;13.460;2024-03-22T12:04:14;97064.66;;;19.68;55.09
83308;BME280;73223;48.584;13.460;2024-03-22T12:06:44;97046.50;;;21.33;51.01
83308;BME280;73223;48.584;13.460;2024-03-22T12:09:09;97051.19;;;19.72;53.45
83308;BME280;73223;48.584;13.460;2024-03-22T12:11:37;97040.44;;;19.20;52.74
83308;BME280;73223;48.584;13.460;2024-03-22T12:14:02;97036.94;;;20.29;51.20
83308;BME280;73223;48.584;13.460;2024-03-22T12:16:27;97026.28;;;20.83;53.78
83308;BME280;73223;48.584;13.460;2024-03-22T12:18:53;97018.91;;;20.62;51.79
83308;BME280;73223;48.584;13.460;2024-03-22T12:21:18;97014.59;;;20.49;50.87
83308;BME280;73223;48.584;13.460;2024-03-22T12:23:43;97007.69;;;20.33;52.06
83308;BME280;73223;48.584;13.460;2024-03-22T12:26:08;97007.22;;;19.74;52.38
83308;BME280;73223;48.584;13.460;2024-03-22T12:28:34;96997.63;;;20.91;50.39
83308;BME280;73223;48.584;13.460;2024-03-22T12:30:59;96993.88;;;21.68;49.31
83308;BME280;73223;48.584;13.460;2024-03-22T12:33:25;96985.13;;;21.43;48.17
83308;BME280;73223;48.584;13.460;2024-03-22T12:35:50;96988.25;;;20.87;49.32
83308;BME280;73223;48.584;13.460;2024-03-22T12:38:15;96984.84;;;21.83;51.40
83308;BME280;73223;48.584;13.460;2024-03-22T12:40:41;96986.28;;;20.00;51.19